sensor_id;sensor_type;location;lat;lon;timestamp;pressure;altitude;pressure_sealevel;temperature;humidity
63447;BME280;49577;49.872;6.190;2023-02-14T00:01:44;101362.86;;;-1.18;80.13
63447;BME280;49577;49.872;6.190;2023-02-14T00:04:10;101361.11;;;-1.21;80.01
63447;BME280;49577;49.872;6.190;2023-02-14T00:06:35;101359.64;;;-1.28;79.88
63447;BME280;49577;49.872;6.190;2023-02-14T00:09:03;101361.09;;;-1.35;80.09
63447;BME280;49577;49.872;6.190;2023-02-14T00:11:28;101360.34;;;-1.40;80.32
63447;BME280;49577;49.872;6.190;2023-02-14T00:13:54;101358.96;;;-1.40;80.75
63447;BME280;49577;49.872;6.190;2023-02-14T00:16:38;101355.20;;;-1.39;80.69
63447;BME280;49577;49.872;6.190;2023-02-14T00:19:03;101349.71;;;-1.39;80.54
63447;BME280;49577;49.872;6.190;2023-02-14T00:21:32;101347.30;;;-1.40;80.66
63447;BME280;49577;49.872;6.190;2023-02-14T00:24:00;101347.14;;;-1.40;80.62
63447;BME280;49577;49.872;6.190;2023-02-14T00:26:25;101344.23;;;-1.40;80.52
63447;BME280;49577;49.872;6.190;2023-02-14T00:28:51;101346.08;;;-1.42;80.54
63447;BME280;49577;49.872;6.190;2023-02-14T00:31:16;101342.42;;;-1.46;80.41
63447;BME280;49577;49.872;6.190;2023-02-14T00:33:41;101343.04;;;-1.51;80.36
63447;BME280;49577;49.872;6.190;2023-02-14T00:36:06;101348.95;;;-1.57;80.47
63447;BME280;49577;49.872;6.190;2023-02-14T00:38:32;101353.73;;;-1.58;80.87
63447;BME280;49577;49.872;6.190;2023-02-14T00:40:57;101350.33;;;-1.57;80.69
63447;BME280;49577;49.872;6.190;2023-02-14T00:43:22;101346.29;;;-1.52;81.18
63447;BME280;49577;49.872;6.190;2023-02-14T00:45:48;101348.81;;;-1.43;81.25
63447;BME280;49577;49.872;6.190;2023-02-14T00:48:13;101347.55;;;-1.36;81.07
63447;BME280;49577;49.872;6.190;2023-02-14T00:50:38;101343.84;;;-1.30;81.11
63447;BME280;49577;49.872;6.190;2023-02-14T00:53:03;101343.39;;;-1.25;81.06
63447;BME280;49577;49.872;6.190;2023-02-14T00:55:28;101344.80;;;-1.23;81.16
63447;BME280;49577;49.872;6.190;2023-02-14T00:57:54;101350.80;;;-1.21;81.19
63447;BME280;49577;49.872;6.190;2023-02-14T01:00:19;101346.69;;;-1.22;81.29
63447;BME280;49577;49.872;6.190;2023-02-14T01:02:44;101345.30;;;-1.23;81.31
63447;BME280;49577;49.872;6.190;2023-02-14T01:05:09;101348.58;;;-1.22;81.54
63447;BME280;49577;49.872;6.190;2023-02-14T01:07:35;101347.25;;;-1.19;81.62
63447;BME280;49577;49.872;6.190;2023-02-14T01:10:00;101349.14;;;-1.18;81.44
63447;BME280;49577;49.872;6.190;2023-02-14T01:12:25;101349.15;;;-1.17;81.51
63447;BME280;49577;49.872;6.190;2023-02-14T01:14:50;101346.06;;;-1.18;81.61
63447;BME280;49577;49.872;6.190;2023-02-14T01:17:16;101344.01;;;-1.18;81.51
63447;BME280;49577;49.872;6.190;2023-02-14T01:19:41;101341.09;;;-1.17;81.56
63447;BME280;49577;49.872;6.190;2023-02-14T01:22:06;101341.13;;;-1.14;81.71
63447;BME280;49577;49.872;6.190;2023-02-14T01:24:31;101342.69;;;-1.13;81.80
63447;BME280;49577;49.872;6.190;2023-02-14T01:26:57;101345.61;;;-1.13;81.95
63447;BME280;49577;49.872;6.190;2023-02-14T01:29:22;101342.84;;;-1.15;82.00
63447;BME280;49577;49.872;6.190;2023-02-14T01:31:47;101339.94;;;-1.15;82.28
63447;BME280;49577;49.872;6.190;2023-02-14T01:34:13;101337.75;;;-1.11;82.62
63447;BME280;49577;49.872;6.190;2023-02-14T01:36:38;101335.56;;;-1.08;82.62
63447;BME280;49577;49.872;6.190;2023-02-14T01:39:09;101330.80;;;-1.05;82.51
63447;BME280;49577;49.872;6.190;2023-02-14T01:41:35;101331.98;;;-1.07;81.96
63447;BME280;49577;49.872;6.190;2023-02-14T01:44:53;101328.88;;;-1.08;81.96
63447;BME280;49577;49.872;6.190;2023-02-14T01:46:52;101331.59;;;-1.09;82.00
63447;BME280;49577;49.872;6.190;2023-02-14T01:49:24;101334.50;;;-1.11;82.00
63447;BME280;49577;49.872;6.190;2023-02-14T01:51:56;101334.95;;;-1.14;81.53
63447;BME280;49577;49.872;6.190;2023-02-14T01:54:25;101335.57;;;-1.20;81.15
63447;BME280;49577;49.872;6.190;2023-02-14T01:56:53;101333.77;;;-1.28;81.21
63447;BME280;49577;49.872;6.190;2023-02-14T01:59:21;101331.14;;;-1.31;81.37
63447;BME280;49577;49.872;6.190;2023-02-14T02:01:49;101331.11;;;-1.34;80.97
63447;BME280;49577;49.872;6.190;2023-02-14T02:04:15;101327.46;;;-1.38;80.86
63447;BME280;49577;49.872;6.190;2023-02-14T02:06:46;101324.11;;;-1.44;80.68
63447;BME280;49577;49.872;6.190;2023-02-14T02:11:57;101329.27;;;-1.56;80.82
63447;BME280;49577;49.872;6.190;2023-02-14T02:14:22;101327.68;;;-1.58;81.04
63447;BME280;49577;49.872;6.190;2023-02-14T02:22:11;101317.06;;;-1.46;81.13
63447;BME280;49577;49.872;6.190;2023-02-14T02:24:48;101321.03;;;-1.43;81.22
63447;BME280;49577;49.872;6.190;2023-02-14T02:42:32;101319.30;;;-1.33;81.75
63447;BME280;49577;49.872;6.190;2023-02-14T02:45:11;101317.94;;;-1.32;81.93
63447;BME280;49577;49.872;6.190;2023-02-14T02:47:43;101316.77;;;-1.29;82.18
63447;BME280;49577;49.872;6.190;2023-02-14T02:50:19;101314.05;;;-1.27;82.35
63447;BME280;49577;49.872;6.190;2023-02-14T02:53:19;101309.14;;;-1.22;82.62
63447;BME280;49577;49.872;6.190;2023-02-14T02:56:00;101309.36;;;-1.18;82.52
63447;BME280;49577;49.872;6.190;2023-02-14T02:58:47;101313.17;;;-1.14;82.52
63447;BME280;49577;49.872;6.190;2023-02-14T03:01:16;101312.04;;;-1.10;82.73
63447;BME280;49577;49.872;6.190;2023-02-14T03:03:44;101308.98;;;-1.08;82.61
63447;BME280;49577;49.872;6.190;2023-02-14T03:06:32;101313.64;;;-1.05;82.48
63447;BME280;49577;49.872;6.190;2023-02-14T03:09:08;101315.52;;;-1.04;82.52
63447;BME280;49577;49.872;6.190;2023-02-14T03:11:33;101313.86;;;-1.00;82.64
63447;BME280;49577;49.872;6.190;2023-02-14T03:21:27;101302.86;;;-0.88;82.11
63447;BME280;49577;49.872;6.190;2023-02-14T03:24:08;101300.08;;;-0.90;82.01
63447;BME280;49577;49.872;6.190;2023-02-14T03:26:37;101304.52;;;-0.92;82.18
63447;BME280;49577;49.872;6.190;2023-02-14T03:29:23;101302.81;;;-0.91;82.44
63447;BME280;49577;49.872;6.190;2023-02-14T03:34:32;101300.92;;;-0.90;82.33
63447;BME280;49577;49.872;6.190;2023-02-14T03:37:13;101296.81;;;-0.92;82.28
63447;BME280;49577;49.872;6.190;2023-02-14T03:42:06;101296.24;;;-0.95;82.54
63447;BME280;49577;49.872;6.190;2023-02-14T03:44:33;101296.25;;;-0.94;82.76
63447;BME280;49577;49.872;6.190;2023-02-14T03:47:01;101295.42;;;-0.93;83.05
63447;BME280;49577;49.872;6.190;2023-02-14T03:49:29;101293.73;;;-0.91;83.16
63447;BME280;49577;49.872;6.190;2023-02-14T03:51:56;101294.24;;;-0.90;83.08
63447;BME280;49577;49.872;6.190;2023-02-14T03:54:23;101298.02;;;-0.90;83.19
63447;BME280;49577;49.872;6.190;2023-02-14T03:56:50;101296.48;;;-0.90;83.08
63447;BME280;49577;49.872;6.190;2023-02-14T03:59:21;101297.49;;;-0.91;83.14
63447;BME280;49577;49.872;6.190;2023-02-14T04:01:52;101296.81;;;-0.92;83.23
63447;BME280;49577;49.872;6.190;2023-02-14T04:04:20;101297.33;;;-0.92;83.19
63447;BME280;49577;49.872;6.190;2023-02-14T04:06:46;101299.39;;;-0.91;83.45
63447;BME280;49577;49.872;6.190;2023-02-14T04:09:11;101297.67;;;-0.90;83.41
63447;BME280;49577;49.872;6.190;2023-02-14T04:11:36;101296.16;;;-0.89;83.67
63447;BME280;49577;49.872;6.190;2023-02-14T04:14:03;101295.83;;;-0.87;83.64
63447;BME280;49577;49.872;6.190;2023-02-14T04:16:28;101302.36;;;-0.86;83.74
63447;BME280;49577;49.872;6.190;2023-02-14T04:18:53;101301.15;;;-0.86;83.58
63447;BME280;49577;49.872;6.190;2023-02-14T04:21:37;101305.65;;;-0.85;83.89
63447;BME280;49577;49.872;6.190;2023-02-14T04:24:02;101308.57;;;-0.84;83.89
63447;BME280;49577;49.872;6.190;2023-02-14T04:26:28;101308.40;;;-0.82;83.74
63447;BME280;49577;49.872;6.190;2023-02-14T04:28:53;101312.03;;;-0.80;83.90
63447;BME280;49577;49.872;6.190;2023-02-14T04:31:18;101309.28;;;-0.81;83.71
63447;BME280;49577;49.872;6.190;2023-02-14T04:33:43;101313.04;;;-0.83;83.62
63447;BME280;49577;49.872;6.190;2023-02-14T04:36:10;101310.64;;;-0.83;83.76
63447;BME280;49577;49.872;6.190;2023-02-14T04:38:35;101310.30;;;-0.83;83.85
63447;BME280;49577;49.872;6.190;2023-02-14T04:41:00;101308.58;;;-0.83;83.81
63447;BME280;49577;49.872;6.190;2023-02-14T04:43:25;101308.90;;;-0.85;83.69
63447;BME280;49577;49.872;6.190;2023-02-14T04:45:51;101309.90;;;-0.88;83.57
63447;BME280;49577;49.872;6.190;2023-02-14T04:48:16;101311.62;;;-0.89;83.89
63447;BME280;49577;49.872;6.190;2023-02-14T04:50:41;101313.33;;;-0.89;83.98
63447;BME280;49577;49.872;6.190;2023-02-14T04:53:07;101309.72;;;-0.88;84.12
63447;BME280;49577;49.872;6.190;2023-02-14T04:55:32;101309.04;;;-0.89;84.10
63447;BME280;49577;49.872;6.190;2023-02-14T04:57:57;101311.44;;;-0.88;84.28
63447;BME280;49577;49.872;6.190;2023-02-14T05:00:22;101304.75;;;-0.87;84.21
63447;BME280;49577;49.872;6.190;2023-02-14T05:02:48;101300.98;;;-0.87;84.04
63447;BME280;49577;49.872;6.190;2023-02-14T05:05:13;101301.66;;;-0.88;83.77
63447;BME280;49577;49.872;6.190;2023-02-14T05:07:39;101304.54;;;-0.91;83.79
63447;BME280;49577;49.872;6.190;2023-02-14T05:10:04;101305.90;;;-0.92;83.77
63447;BME280;49577;49.872;6.190;2023-02-14T05:12:29;101307.09;;;-0.93;83.67
63447;BME280;49577;49.872;6.190;2023-02-14T05:14:55;101308.27;;;-0.95;83.76
63447;BME280;49577;49.872;6.190;2023-02-14T05:17:21;101309.63;;;-0.95;83.67
63447;BME280;49577;49.872;6.190;2023-02-14T05:19:46;101310.48;;;-0.96;83.66
63447;BME280;49577;49.872;6.190;2023-02-14T05:22:12;101304.48;;;-0.97;83.61
63447;BME280;49577;49.872;6.190;2023-02-14T05:24:37;101301.52;;;-0.98;83.35
63447;BME280;49577;49.872;6.190;2023-02-14T05:27:02;101306.48;;;-0.99;83.45
63447;BME280;49577;49.872;6.190;2023-02-14T05:29:27;101305.14;;;-0.98;83.67
63447;BME280;49577;49.872;6.190;2023-02-14T05:31:53;101303.96;;;-0.97;83.59
63447;BME280;49577;49.872;6.190;2023-02-14T05:34:18;101303.60;;;-0.98;83.57
63447;BME280;49577;49.872;6.190;2023-02-14T05:36:43;101306.48;;;-1.00;83.18
63447;BME280;49577;49.872;6.190;2023-02-14T05:39:08;101310.77;;;-1.03;83.37
63447;BME280;49577;49.872;6.190;2023-02-14T05:41:34;101310.27;;;-1.00;83.68
63447;BME280;49577;49.872;6.190;2023-02-14T05:44:00;101313.17;;;-1.00;83.27
63447;BME280;49577;49.872;6.190;2023-02-14T05:46:25;101317.80;;;-1.01;83.12
63447;BME280;49577;49.872;6.190;2023-02-14T05:48:51;101316.27;;;-1.01;83.07
63447;BME280;49577;49.872;6.190;2023-02-14T05:51:16;101316.43;;;-1.01;83.11
63447;BME280;49577;49.872;6.190;2023-02-14T05:53:41;101317.77;;;-1.04;82.71
63447;BME280;49577;49.872;6.190;2023-02-14T05:56:06;101318.21;;;-1.10;82.75
63447;BME280;49577;49.872;6.190;2023-02-14T05:58:32;101316.27;;;-1.14;82.93
63447;BME280;49577;49.872;6.190;2023-02-14T06:00:57;101314.70;;;-1.16;83.04
63447;BME280;49577;49.872;6.190;2023-02-14T06:03:23;101313.48;;;-1.17;83.18
63447;BME280;49577;49.872;6.190;2023-02-14T06:05:48;101315.39;;;-1.16;83.34
63447;BME280;49577;49.872;6.190;2023-02-14T06:08:13;101316.59;;;-1.16;83.21
63447;BME280;49577;49.872;6.190;2023-02-14T06:10:38;101313.66;;;-1.16;83.16
63447;BME280;49577;49.872;6.190;2023-02-14T06:13:04;101311.59;;;-1.18;83.10
63447;BME280;49577;49.872;6.190;2023-02-14T06:15:33;101312.44;;;-1.19;82.96
63447;BME280;49577;49.872;6.190;2023-02-14T06:17:58;101312.95;;;-1.20;83.14
63447;BME280;49577;49.872;6.190;2023-02-14T06:20:24;101312.23;;;-1.21;83.08
63447;BME280;49577;49.872;6.190;2023-02-14T06:22:49;101315.52;;;-1.19;83.24
63447;BME280;49577;49.872;6.190;2023-02-14T06:25:14;101312.95;;;-1.19;83.25
63447;BME280;49577;49.872;6.190;2023-02-14T06:27:40;101312.71;;;-1.24;82.62
63447;BME280;49577;49.872;6.190;2023-02-14T06:30:05;101316.17;;;-1.36;82.10
63447;BME280;49577;49.872;6.190;2023-02-14T06:32:31;101319.65;;;-1.45;82.38
63447;BME280;49577;49.872;6.190;2023-02-14T06:34:56;101314.92;;;-1.52;82.69
63447;BME280;49577;49.872;6.190;2023-02-14T06:37:21;101312.84;;;-1.54;83.13
63447;BME280;49577;49.872;6.190;2023-02-14T06:39:46;101317.64;;;-1.54;83.29
63447;BME280;49577;49.872;6.190;2023-02-14T06:42:11;101315.08;;;-1.52;83.50
63447;BME280;49577;49.872;6.190;2023-02-14T06:44:37;101317.32;;;-1.52;83.42
63447;BME280;49577;49.872;6.190;2023-02-14T06:47:02;101319.07;;;-1.49;83.56
63447;BME280;49577;49.872;6.190;2023-02-14T06:49:28;101324.21;;;-1.49;83.52
63447;BME280;49577;49.872;6.190;2023-02-14T06:51:53;101324.10;;;-1.45;83.66
63447;BME280;49577;49.872;6.190;2023-02-14T06:54:18;101324.48;;;-1.43;83.58
63447;BME280;49577;49.872;6.190;2023-02-14T06:56:44;101321.02;;;-1.44;83.27
63447;BME280;49577;49.872;6.190;2023-02-14T06:59:09;101317.41;;;-1.46;83.51
63447;BME280;49577;49.872;6.190;2023-02-14T07:01:34;101317.70;;;-1.49;83.35
63447;BME280;49577;49.872;6.190;2023-02-14T07:03:59;101318.02;;;-1.51;83.33
63447;BME280;49577;49.872;6.190;2023-02-14T07:06:24;101316.79;;;-1.52;83.60
63447;BME280;49577;49.872;6.190;2023-02-14T07:08:50;101321.03;;;-1.57;83.10
63447;BME280;49577;49.872;6.190;2023-02-14T07:11:15;101319.41;;;-1.61;83.28
63447;BME280;49577;49.872;6.190;2023-02-14T07:13:40;101321.30;;;-1.61;83.62
63447;BME280;49577;49.872;6.190;2023-02-14T07:16:07;101317.58;;;-1.58;83.80
63447;BME280;49577;49.872;6.190;2023-02-14T07:18:33;101322.41;;;-1.55;83.83
63447;BME280;49577;49.872;6.190;2023-02-14T07:20:58;101319.00;;;-1.54;83.83
63447;BME280;49577;49.872;6.190;2023-02-14T07:23:23;101323.30;;;-1.53;83.67
63447;BME280;49577;49.872;6.190;2023-02-14T07:25:48;101317.88;;;-1.48;84.10
63447;BME280;49577;49.872;6.190;2023-02-14T07:28:14;101317.06;;;-1.46;83.80
63447;BME280;49577;49.872;6.190;2023-02-14T07:30:39;101312.09;;;-1.45;83.84
63447;BME280;49577;49.872;6.190;2023-02-14T07:33:04;101312.50;;;-1.41;83.97
63447;BME280;49577;49.872;6.190;2023-02-14T07:35:29;101314.23;;;-1.39;83.59
63447;BME280;49577;49.872;6.190;2023-02-14T07:37:54;101315.62;;;-1.38;83.54
63447;BME280;49577;49.872;6.190;2023-02-14T07:40:20;101321.33;;;-1.35;83.54
63447;BME280;49577;49.872;6.190;2023-02-14T07:42:52;101319.14;;;-1.32;83.45
63447;BME280;49577;49.872;6.190;2023-02-14T07:45:18;101320.89;;;-1.28;83.38
63447;BME280;49577;49.872;6.190;2023-02-14T07:47:43;101318.05;;;-1.22;83.48
63447;BME280;49577;49.872;6.190;2023-02-14T07:50:08;101317.93;;;-1.18;83.19
63447;BME280;49577;49.872;6.190;2023-02-14T07:52:34;101319.54;;;-1.13;83.13
63447;BME280;49577;49.872;6.190;2023-02-14T07:54:59;101317.21;;;-1.08;83.10
63447;BME280;49577;49.872;6.190;2023-02-14T07:57:24;101317.06;;;-1.05;82.66
63447;BME280;49577;49.872;6.190;2023-02-14T07:59:49;101320.01;;;-1.03;82.44
63447;BME280;49577;49.872;6.190;2023-02-14T08:02:14;101319.83;;;-1.04;81.80
63447;BME280;49577;49.872;6.190;2023-02-14T08:04:40;101320.66;;;-1.06;81.90
63447;BME280;49577;49.872;6.190;2023-02-14T08:07:05;101315.21;;;-1.02;82.04
63447;BME280;49577;49.872;6.190;2023-02-14T08:09:30;101314.48;;;-0.92;81.81
63447;BME280;49577;49.872;6.190;2023-02-14T08:11:56;101313.41;;;-0.80;81.73
63447;BME280;49577;49.872;6.190;2023-02-14T08:14:40;101309.98;;;-0.65;81.66
63447;BME280;49577;49.872;6.190;2023-02-14T08:17:06;101312.27;;;-0.58;81.17
63447;BME280;49577;49.872;6.190;2023-02-14T08:19:33;101310.07;;;-0.54;81.03
63447;BME280;49577;49.872;6.190;2023-02-14T08:21:58;101308.52;;;-0.55;80.90
63447;BME280;49577;49.872;6.190;2023-02-14T08:24:24;101309.27;;;-0.49;81.03
63447;BME280;49577;49.872;6.190;2023-02-14T08:26:49;101311.74;;;-0.41;81.04
63447;BME280;49577;49.872;6.190;2023-02-14T08:29:14;101306.48;;;-0.35;80.54
63447;BME280;49577;49.872;6.190;2023-02-14T08:31:39;101308.66;;;-0.21;81.02
63447;BME280;49577;49.872;6.190;2023-02-14T08:34:05;101310.17;;;-0.04;80.58
63447;BME280;49577;49.872;6.190;2023-02-14T08:36:30;101307.18;;;0.11;80.40
63447;BME280;49577;49.872;6.190;2023-02-14T08:38:55;101312.13;;;0.30;80.07
63447;BME280;49577;49.872;6.190;2023-02-14T08:41:21;101309.83;;;0.47;79.81
63447;BME280;49577;49.872;6.190;2023-02-14T08:43:47;101317.49;;;0.67;79.60
63447;BME280;49577;49.872;6.190;2023-02-14T08:46:12;101315.68;;;0.84;79.08
63447;BME280;49577;49.872;6.190;2023-02-14T08:48:38;101318.48;;;0.96;78.01
63447;BME280;49577;49.872;6.190;2023-02-14T08:51:05;101316.46;;;1.09;77.99
63447;BME280;49577;49.872;6.190;2023-02-14T08:53:30;101317.55;;;1.23;77.33
63447;BME280;49577;49.872;6.190;2023-02-14T08:55:58;101313.45;;;1.39;77.01
63447;BME280;49577;49.872;6.190;2023-02-14T08:58:25;101311.41;;;1.48;76.62
63447;BME280;49577;49.872;6.190;2023-02-14T09:00:50;101311.77;;;1.54;76.33
63447;BME280;49577;49.872;6.190;2023-02-14T09:03:16;101307.98;;;1.61;75.99
63447;BME280;49577;49.872;6.190;2023-02-14T09:05:41;101302.83;;;1.68;75.74
63447;BME280;49577;49.872;6.190;2023-02-14T09:08:07;101302.14;;;1.79;75.80
63447;BME280;49577;49.872;6.190;2023-02-14T09:10:32;101304.55;;;1.92;75.39
63447;BME280;49577;49.872;6.190;2023-02-14T09:12:57;101302.81;;;2.13;75.28
63447;BME280;49577;49.872;6.190;2023-02-14T09:15:22;101301.23;;;2.34;74.93
63447;BME280;49577;49.872;6.190;2023-02-14T09:17:48;101297.07;;;2.46;74.49
63447;BME280;49577;49.872;6.190;2023-02-14T09:20:13;101295.98;;;2.59;73.84
63447;BME280;49577;49.872;6.190;2023-02-14T09:22:39;101295.09;;;2.71;73.57
63447;BME280;49577;49.872;6.190;2023-02-14T09:25:04;101300.73;;;2.80;73.23
63447;BME280;49577;49.872;6.190;2023-02-14T09:27:30;101304.02;;;2.84;72.69
63447;BME280;49577;49.872;6.190;2023-02-14T09:29:55;101304.69;;;2.88;72.34
63447;BME280;49577;49.872;6.190;2023-02-14T09:32:20;101306.55;;;2.93;72.52
63447;BME280;49577;49.872;6.190;2023-02-14T09:34:45;101304.91;;;3.11;72.82
63447;BME280;49577;49.872;6.190;2023-02-14T09:37:11;101303.08;;;3.34;72.12
63447;BME280;49577;49.872;6.190;2023-02-14T09:39:55;101299.55;;;3.46;71.01
63447;BME280;49577;49.872;6.190;2023-02-14T09:42:23;101298.48;;;3.51;71.15
63447;BME280;49577;49.872;6.190;2023-02-14T09:45:08;101296.25;;;3.69;71.07
63447;BME280;49577;49.872;6.190;2023-02-14T09:50:04;101299.79;;;4.04;71.00
63447;BME280;49577;49.872;6.190;2023-02-14T09:52:30;101303.02;;;4.44;70.23
63447;BME280;49577;49.872;6.190;2023-02-14T09:54:59;101296.66;;;5.38;69.43
63447;BME280;49577;49.872;6.190;2023-02-14T10:00:18;101291.34;;;5.91;66.75
63447;BME280;49577;49.872;6.190;2023-02-14T10:02:52;101286.66;;;6.22;66.43
63447;BME280;49577;49.872;6.190;2023-02-14T10:05:27;101284.36;;;6.69;65.48
63447;BME280;49577;49.872;6.190;2023-02-14T10:10:39;101281.88;;;9.20;61.67
63447;BME280;49577;49.872;6.190;2023-02-14T10:13:13;101276.49;;;9.97;59.38
63447;BME280;49577;49.872;6.190;2023-02-14T10:15:42;101268.61;;;10.72;56.75
63447;BME280;49577;49.872;6.190;2023-02-14T10:18:44;101268.35;;;10.75;55.68
63447;BME280;49577;49.872;6.190;2023-02-14T10:21:00;101269.35;;;10.90;55.12
63447;BME280;49577;49.872;6.190;2023-02-14T10:23:36;101264.20;;;11.59;54.07
63447;BME280;49577;49.872;6.190;2023-02-14T10:26:05;101263.52;;;12.73;52.37
63447;BME280;49577;49.872;6.190;2023-02-14T10:28:40;101258.20;;;14.06;50.30
63447;BME280;49577;49.872;6.190;2023-02-14T10:31:18;101253.36;;;15.17;47.91
63447;BME280;49577;49.872;6.190;2023-02-14T10:34:21;101252.92;;;15.81;46.01
63447;BME280;49577;49.872;6.190;2023-02-14T10:36:47;101247.39;;;16.09;43.42
63447;BME280;49577;49.872;6.190;2023-02-14T10:39:25;101246.98;;;16.07;42.66
63447;BME280;49577;49.872;6.190;2023-02-14T10:42:39;101247.83;;;16.28;42.30
63447;BME280;49577;49.872;6.190;2023-02-14T10:52:31;101231.15;;;17.26;40.32
63447;BME280;49577;49.872;6.190;2023-02-14T10:55:07;101226.89;;;17.37;40.30
63447;BME280;49577;49.872;6.190;2023-02-14T10:57:36;101219.02;;;17.86;40.22
63447;BME280;49577;49.872;6.190;2023-02-14T11:00:04;101216.05;;;18.21;39.16
63447;BME280;49577;49.872;6.190;2023-02-14T11:02:35;101206.85;;;18.52;38.98
63447;BME280;49577;49.872;6.190;2023-02-14T11:05:01;101205.36;;;18.88;38.36
63447;BME280;49577;49.872;6.190;2023-02-14T11:07:27;101201.92;;;19.21;37.96
63447;BME280;49577;49.872;6.190;2023-02-14T11:09:54;101202.77;;;19.48;37.42
63447;BME280;49577;49.872;6.190;2023-02-14T11:12:32;101198.52;;;19.71;36.90
63447;BME280;49577;49.872;6.190;2023-02-14T11:15:09;101196.27;;;19.98;36.50
63447;BME280;49577;49.872;6.190;2023-02-14T11:17:35;101192.64;;;20.09;36.21
63447;BME280;49577;49.872;6.190;2023-02-14T11:20:03;101188.82;;;20.17;35.84
63447;BME280;49577;49.872;6.190;2023-02-14T11:22:33;101185.41;;;20.51;35.58
63447;BME280;49577;49.872;6.190;2023-02-14T11:25:41;101181.48;;;20.69;35.00
63447;BME280;49577;49.872;6.190;2023-02-14T11:27:48;101174.53;;;20.83;34.99
63447;BME280;49577;49.872;6.190;2023-02-14T11:30:30;101171.72;;;20.98;34.49
63447;BME280;49577;49.872;6.190;2023-02-14T11:32:57;101166.93;;;21.02;34.51
63447;BME280;49577;49.872;6.190;2023-02-14T11:35:23;101162.09;;;21.28;34.31
63447;BME280;49577;49.872;6.190;2023-02-14T11:37:54;101158.75;;;21.58;33.65
63447;BME280;49577;49.872;6.190;2023-02-14T11:42:49;101152.89;;;21.62;33.74
63447;BME280;49577;49.872;6.190;2023-02-14T11:48:11;101142.42;;;21.74;33.27
63447;BME280;49577;49.872;6.190;2023-02-14T11:50:38;101135.64;;;21.56;33.27
63447;BME280;49577;49.872;6.190;2023-02-14T11:53:04;101129.60;;;21.64;33.44
63447;BME280;49577;49.872;6.190;2023-02-14T11:55:34;101126.15;;;21.48;33.35
63447;BME280;49577;49.872;6.190;2023-02-14T11:58:00;101122.63;;;21.62;33.58
63447;BME280;49577;49.872;6.190;2023-02-14T12:00:27;101116.83;;;21.99;33.50
63447;BME280;49577;49.872;6.190;2023-02-14T12:02:55;101113.46;;;22.01;32.88
63447;BME280;49577;49.872;6.190;2023-02-14T12:05:29;101110.10;;;21.86;33.11
63447;BME280;49577;49.872;6.190;2023-02-14T12:08:02;101104.10;;;21.89;33.00
63447;BME280;49577;49.872;6.190;2023-02-14T12:10:28;101100.39;;;21.83;33.14
63447;BME280;49577;49.872;6.190;2023-02-14T12:12:55;101089.73;;;22.07;33.21
63447;BME280;49577;49.872;6.190;2023-02-14T12:15:32;101085.05;;;21.92;32.57
63447;BME280;49577;49.872;6.190;2023-02-14T12:20:31;101074.55;;;21.88;33.02
63447;BME280;49577;49.872;6.190;2023-02-14T12:23:23;101068.15;;;22.06;33.07
63447;BME280;49577;49.872;6.190;2023-02-14T12:25:59;101058.44;;;22.30;32.59
63447;BME280;49577;49.872;6.190;2023-02-14T12:28:36;101057.42;;;22.59;32.44
63447;BME280;49577;49.872;6.190;2023-02-14T12:31:07;101052.14;;;22.64;31.73
63447;BME280;49577;49.872;6.190;2023-02-14T12:33:33;101047.89;;;22.26;32.01
63447;BME280;49577;49.872;6.190;2023-02-14T12:36:43;101042.05;;;22.26;32.38
63447;BME280;49577;49.872;6.190;2023-02-14T12:38:59;101034.69;;;22.42;32.44
63447;BME280;49577;49.872;6.190;2023-02-14T12:43:56;101030.70;;;21.83;32.14
63447;BME280;49577;49.872;6.190;2023-02-14T12:54:20;101015.83;;;21.90;32.52
63447;BME280;49577;49.872;6.190;2023-02-14T13:10:03;100987.48;;;21.46;32.14
63447;BME280;49577;49.872;6.190;2023-02-14T13:15:18;100976.34;;;21.27;32.07
63447;BME280;49577;49.872;6.190;2023-02-14T13:17:47;100970.03;;;21.01;32.63
63447;BME280;49577;49.872;6.190;2023-02-14T13:22:49;100957.13;;;20.34;33.10
63447;BME280;49577;49.872;6.190;2023-02-14T13:25:21;100951.33;;;19.99;33.79
63447;BME280;49577;49.872;6.190;2023-02-14T13:27:47;100949.09;;;19.69;34.54
63447;BME280;49577;49.872;6.190;2023-02-14T13:30:18;100946.89;;;19.41;35.03
63447;BME280;49577;49.872;6.190;2023-02-14T13:32:47;100941.69;;;18.87;35.06
63447;BME280;49577;49.872;6.190;2023-02-14T13:35:15;100936.99;;;18.38;35.72
63447;BME280;49577;49.872;6.190;2023-02-14T13:37:42;100937.04;;;17.84;36.22
63447;BME280;49577;49.872;6.190;2023-02-14T13:40:15;100928.18;;;17.50;37.19
63447;BME280;49577;49.872;6.190;2023-02-14T13:48:04;100927.10;;;16.49;38.68
63447;BME280;49577;49.872;6.190;2023-02-14T13:50:29;100924.02;;;16.08;39.11
63447;BME280;49577;49.872;6.190;2023-02-14T13:52:55;100919.60;;;15.86;39.46
63447;BME280;49577;49.872;6.190;2023-02-14T13:55:21;100915.67;;;15.59;39.85
63447;BME280;49577;49.872;6.190;2023-02-14T14:03:03;100914.34;;;14.83;41.28
63447;BME280;49577;49.872;6.190;2023-02-14T14:18:46;100907.16;;;14.18;42.58
63447;BME280;49577;49.872;6.190;2023-02-14T14:21:20;100908.48;;;14.14;42.90
63447;BME280;49577;49.872;6.190;2023-02-14T14:24:06;100907.36;;;14.06;43.00
63447;BME280;49577;49.872;6.190;2023-02-14T14:26:36;100906.81;;;13.97;43.19
63447;BME280;49577;49.872;6.190;2023-02-14T14:29:24;100903.41;;;13.92;44.03
63447;BME280;49577;49.872;6.190;2023-02-14T14:31:47;100905.22;;;13.81;44.63
63447;BME280;49577;49.872;6.190;2023-02-14T14:34:19;100903.09;;;13.63;44.72
63447;BME280;49577;49.872;6.190;2023-02-14T14:36:44;100902.63;;;13.52;45.12
63447;BME280;49577;49.872;6.190;2023-02-14T14:39:10;100903.86;;;13.45;45.49
63447;BME280;49577;49.872;6.190;2023-02-14T14:41:35;100899.95;;;13.36;45.49
63447;BME280;49577;49.872;6.190;2023-02-14T14:44:03;100900.78;;;13.27;45.77
63447;BME280;49577;49.872;6.190;2023-02-14T14:46:28;100896.00;;;13.18;45.03
63447;BME280;49577;49.872;6.190;2023-02-14T14:48:54;100899.75;;;13.10;45.56